A- A+ FrançaisEnglishEspañol中国

le plus proche LFBT Tarbes-Lourdes-PyrénéesLFML Marseille LFTH Hyeres-Le-Palyvestre LFTF Cuers-Pierrefeu

manche à air

La météo aéronautique pour les pilotes, la préparation du vol avec les METAR (METeorological Aerodrome Report, message d'observation des conditions météorologiques pour l'aviation) et Les TAF (Terminal Aerodrome Forecast : message de prévision à court terme des conditions météorologiques pour l'aviation). Et les autres ressources comme les VAC (Visual Approch Chart) et les NOTAM (Notice To Airman) pour préprer les vols.

Aéroport Cold Lake (Canada) / OACI CYOD/ IATA YOD

L'altitude de l'aéroport Cold Lake est de 541 m=1775 ft. Il est situé à proximité de Cold Lake (Canada). La météo générale à 5 jours est disponible pour Medley situé à 1.5 km.

METAR de l'aéroport Cold Lake - CYOD

CYOD 100900Z 21002KT 15SM SKC M27/M32 A3010 RMK FROIN SLP255

Décodage du METAR de l'aéroport Cold Lake (CA)

METAR émis par CYOD le mardi 10 décembre 2019 à 09:00 heure TU. Attention ce METAR est obsolète car il a été émis il y a 23 heure et 14 minutes.

La visibilité est de 24.1 km=15 sm.

La température est de -27°C=-17 °F et le point rosée est de -32°C=-26 °F . Ce qui correspond à 63% d'humidité relative.

Le QNH est de 1019 hPa=30.09 inHg

Vent de 2 kt=4 km/h, orienté à 210°.

Pas de nuages.

RMK FROIN SLP255

TAF de l'aéroport Cold Lake - CYOD

CYOD 190530Z 1906/2006 28005KT P6SM SCT030 TEMPO 1906/1909 BKN030 FM190900 31005KT P6SM SCT030 BKN180 FM191200 31005KT P6SM SCT010 OVC130 BECMG 1913/1915 02005KT FM191900 02005KT P6SM SCT140 BECMG 1919/1921 35008KT RMK NXT FCST BY 191200Z

CYOD 190530Z 1906/2006 28005KT P6SM nuages épars à 030 temporairement 1906/1909 couverture nuageuse fragmentée à 030 FM190900 31005KT P6SM nuages épars à 030 couverture nuageuse fragmentée à 180 FM191200 31005KT P6SM nuages épars à 010 couverture nuageuse soudée à 130 devenant 1913/1915 02005KT FM191900 02005KT P6SM nuages épars à 140 devenant 1919/1921 35008KT remarques NXT trombe ST BY 191200Z

Aéroport à proximité de Cold Lake

Météo générale à 5 jours à Medley (1.5 km)CYBF Aéroport Bonnyville (32 km)CYLJ Aéroport Meadow Lake (118 km)CYLB Aéroport Lac La Bitche (120 km)CYVG Aéroport Vermillion (122 km)CYLL Aéroport Lloydminster (123 km)CYWV Aéroport Wainwright (183 km)

Vue aérienne de l'aéroport Cold Lake

NOTAM de l'aéroport Cold Lake

Les NOTAM sont fournis sans aucune garantie de leur actualité. Le pilote est le seul responsable de la vérification de sa validité avant de l'utiliser opérationnellement pour préparer un vol ou l'utiliser lors de sa navigation.

Pas de NOTAM

Sources des données